DIAIL EDDG-EDDC
Flight info
| Callsign | DIAIL |
|---|---|
| Flight time | 1h 21m |
| Altitude | 18000 |
| Route | OSNAD1Z OSNAD L980 SAS DCT ABGUS Z94 GALMA Z21 RIVSA |
| Aircraft | DA42/L-SBDGRY/S |
Departure
| Time | 2026-04-16 10:37 |
|---|---|
| Airport | Münster Osnabrück Airport (EDDG) |
Arrival
| Time | 2026-04-16 11:59 |
|---|---|
| Airport | Dresden Airport (EDDC) |
| Time | Latitude | Longitude | Altitude | Speed | Heading |
|---|---|---|---|---|---|
| 2026-04-16 10:29 | 52.13130 | 7.68319 | 164 ft | 0 kts | 271° |
| 2026-04-16 10:34 | 52.13131 | 7.68302 | 164 ft | 2 kts | 277° |
| 2026-04-16 10:34 | 52.13161 | 7.68276 | 163 ft | 8 kts | 7° |
| 2026-04-16 10:34 | 52.13206 | 7.68343 | 164 ft | 11 kts | 18° |
| 2026-04-16 10:34 | 52.13275 | 7.68411 | 163 ft | 16 kts | 73° |
| 2026-04-16 10:35 | 52.13312 | 7.68585 | 164 ft | 17 kts | 70° |
| 2026-04-16 10:35 | 52.13356 | 7.68798 | 161 ft | 22 kts | 71° |
| 2026-04-16 10:35 | 52.13406 | 7.69034 | 159 ft | 23 kts | 69° |
| 2026-04-16 10:35 | 52.13459 | 7.69283 | 161 ft | 23 kts | 71° |
| 2026-04-16 10:36 | 52.13508 | 7.69523 | 161 ft | 22 kts | 73° |
| 2026-04-16 10:36 | 52.13558 | 7.69754 | 161 ft | 22 kts | 72° |
| 2026-04-16 10:36 | 52.13603 | 7.69990 | 160 ft | 20 kts | 64° |
| 2026-04-16 10:36 | 52.13733 | 7.70007 | 158 ft | 24 kts | 334° |
| 2026-04-16 10:37 | 52.13716 | 7.69685 | 163 ft | 55 kts | 251° |
| 2026-04-16 10:37 | 52.13552 | 7.68901 | 237 ft | 86 kts | 249° |
| 2026-04-16 10:37 | 52.13353 | 7.67929 | 550 ft | 94 kts | 249° |
| 2026-04-16 10:37 | 52.13132 | 7.66932 | 1060 ft | 92 kts | 249° |
| 2026-04-16 10:38 | 52.12917 | 7.65948 | 1529 ft | 91 kts | 250° |
| 2026-04-16 10:38 | 52.12608 | 7.65066 | 1950 ft | 91 kts | 230° |
| 2026-04-16 10:38 | 52.12060 | 7.64517 | 2362 ft | 92 kts | 202° |
| 2026-04-16 10:38 | 52.11417 | 7.64377 | 2726 ft | 95 kts | 193° |
| 2026-04-16 10:39 | 52.10756 | 7.64285 | 3087 ft | 95 kts | 193° |
| 2026-04-16 10:39 | 52.10093 | 7.64319 | 3437 ft | 100 kts | 174° |
| 2026-04-16 10:39 | 52.09475 | 7.64921 | 3766 ft | 110 kts | 148° |
| 2026-04-16 10:39 | 52.08899 | 7.65744 | 4114 ft | 110 kts | 148° |
| 2026-04-16 10:40 | 52.08324 | 7.66574 | 4470 ft | 111 kts | 149° |
| 2026-04-16 10:40 | 52.07749 | 7.67405 | 4828 ft | 110 kts | 149° |
| 2026-04-16 10:40 | 52.07177 | 7.68229 | 5174 ft | 110 kts | 150° |
| 2026-04-16 10:40 | 52.06608 | 7.69048 | 5513 ft | 109 kts | 150° |
| 2026-04-16 10:41 | 52.06116 | 7.70014 | 5870 ft | 117 kts | 124° |
| 2026-04-16 10:41 | 52.05995 | 7.71343 | 6219 ft | 124 kts | 85° |
| 2026-04-16 10:41 | 52.06274 | 7.72686 | 6560 ft | 126 kts | 70° |
| 2026-04-16 10:41 | 52.06606 | 7.74015 | 6879 ft | 127 kts | 70° |
| 2026-04-16 10:42 | 52.06941 | 7.75346 | 7192 ft | 127 kts | 70° |
| 2026-04-16 10:42 | 52.07271 | 7.76662 | 7510 ft | 127 kts | 70° |
| 2026-04-16 10:42 | 52.07603 | 7.77994 | 7837 ft | 127 kts | 70° |
| 2026-04-16 10:42 | 52.07936 | 7.79331 | 8157 ft | 128 kts | 70° |
| 2026-04-16 10:43 | 52.08271 | 7.80679 | 8487 ft | 128 kts | 70° |
| 2026-04-16 10:43 | 52.08604 | 7.82023 | 8820 ft | 129 kts | 70° |
| 2026-04-16 10:43 | 52.08939 | 7.83373 | 9154 ft | 129 kts | 70° |
| 2026-04-16 10:43 | 52.09274 | 7.84729 | 9486 ft | 129 kts | 69° |
| 2026-04-16 10:44 | 52.09611 | 7.86088 | 9815 ft | 130 kts | 69° |
| 2026-04-16 10:44 | 52.09948 | 7.87453 | 10155 ft | 130 kts | 69° |
| 2026-04-16 10:44 | 52.10287 | 7.88823 | 10457 ft | 131 kts | 68° |
| 2026-04-16 10:44 | 52.10623 | 7.90184 | 10758 ft | 132 kts | 68° |
| 2026-04-16 10:45 | 52.10965 | 7.91567 | 11066 ft | 132 kts | 68° |
| 2026-04-16 10:45 | 52.11309 | 7.92964 | 11374 ft | 133 kts | 68° |
| 2026-04-16 10:45 | 52.11653 | 7.94360 | 11688 ft | 133 kts | 67° |
| 2026-04-16 10:45 | 52.11998 | 7.95761 | 12001 ft | 134 kts | 67° |
| 2026-04-16 10:46 | 52.12243 | 7.97211 | 12310 ft | 134 kts | 94° |
| 2026-04-16 10:46 | 52.12132 | 7.98707 | 12633 ft | 134 kts | 103° |
| 2026-04-16 10:46 | 52.11993 | 8.00215 | 12956 ft | 135 kts | 101° |
| 2026-04-16 10:46 | 52.11871 | 8.01739 | 13281 ft | 136 kts | 100° |
| 2026-04-16 10:47 | 52.11758 | 8.03278 | 13599 ft | 137 kts | 99° |
| 2026-04-16 10:47 | 52.11648 | 8.04827 | 13923 ft | 138 kts | 98° |
| 2026-04-16 10:47 | 52.11539 | 8.06382 | 14220 ft | 139 kts | 98° |
| 2026-04-16 10:47 | 52.11430 | 8.07935 | 14502 ft | 140 kts | 98° |
| 2026-04-16 10:48 | 52.11319 | 8.09517 | 14789 ft | 141 kts | 98° |
| 2026-04-16 10:48 | 52.11207 | 8.11112 | 15082 ft | 142 kts | 98° |
| 2026-04-16 10:48 | 52.11094 | 8.12718 | 15373 ft | 143 kts | 98° |
| 2026-04-16 10:48 | 52.10979 | 8.14336 | 15655 ft | 145 kts | 98° |
| 2026-04-16 10:49 | 52.10863 | 8.15972 | 15931 ft | 146 kts | 98° |
| 2026-04-16 10:49 | 52.10747 | 8.17617 | 16211 ft | 147 kts | 98° |
| 2026-04-16 10:49 | 52.10564 | 8.19253 | 16492 ft | 147 kts | 110° |
| 2026-04-16 10:49 | 52.10277 | 8.20852 | 16768 ft | 148 kts | 109° |
| 2026-04-16 10:50 | 52.10069 | 8.22503 | 17041 ft | 150 kts | 99° |
| 2026-04-16 10:50 | 52.09952 | 8.24202 | 17316 ft | 152 kts | 98° |
| 2026-04-16 10:50 | 52.09838 | 8.25911 | 17587 ft | 153 kts | 98° |
| 2026-04-16 10:50 | 52.09719 | 8.27636 | 17863 ft | 154 kts | 98° |
| 2026-04-16 10:51 | 52.09597 | 8.29370 | 18130 ft | 155 kts | 99° |
| 2026-04-16 10:51 | 52.09468 | 8.31172 | 18216 ft | 170 kts | 99° |
| 2026-04-16 10:51 | 52.09321 | 8.33179 | 18217 ft | 187 kts | 98° |
| 2026-04-16 10:51 | 52.09165 | 8.35348 | 18217 ft | 199 kts | 98° |
| 2026-04-16 10:52 | 52.09006 | 8.37595 | 18211 ft | 207 kts | 98° |
| 2026-04-16 10:52 | 52.08840 | 8.39946 | 18212 ft | 211 kts | 98° |
| 2026-04-16 10:52 | 52.08670 | 8.42347 | 18213 ft | 215 kts | 98° |
| 2026-04-16 10:52 | 52.08496 | 8.44777 | 18213 ft | 217 kts | 98° |
| 2026-04-16 10:53 | 52.08318 | 8.47223 | 18209 ft | 219 kts | 98° |
| 2026-04-16 10:53 | 52.08139 | 8.49686 | 18208 ft | 219 kts | 98° |
| 2026-04-16 10:53 | 52.07960 | 8.52151 | 18208 ft | 220 kts | 98° |
| 2026-04-16 10:53 | 52.07780 | 8.54620 | 18208 ft | 220 kts | 98° |
| 2026-04-16 10:54 | 52.07599 | 8.57092 | 18210 ft | 220 kts | 98° |
| 2026-04-16 10:54 | 52.07418 | 8.59563 | 18210 ft | 220 kts | 98° |
| 2026-04-16 10:54 | 52.07236 | 8.62039 | 18211 ft | 221 kts | 98° |
| 2026-04-16 10:54 | 52.07052 | 8.64517 | 18212 ft | 221 kts | 98° |
| 2026-04-16 10:55 | 52.06869 | 8.66995 | 18212 ft | 221 kts | 98° |
| 2026-04-16 10:55 | 52.06685 | 8.69475 | 18212 ft | 221 kts | 98° |
| 2026-04-16 10:55 | 52.06500 | 8.71957 | 18216 ft | 222 kts | 98° |
| 2026-04-16 10:55 | 52.06316 | 8.74423 | 18213 ft | 223 kts | 98° |
| 2026-04-16 10:56 | 52.06129 | 8.76920 | 18213 ft | 222 kts | 98° |
| 2026-04-16 10:56 | 52.05942 | 8.79413 | 18215 ft | 222 kts | 98° |
| 2026-04-16 10:56 | 52.05754 | 8.81912 | 18216 ft | 223 kts | 98° |
| 2026-04-16 10:56 | 52.05563 | 8.84424 | 18215 ft | 223 kts | 98° |
| 2026-04-16 10:57 | 52.05374 | 8.86927 | 18205 ft | 223 kts | 98° |
| 2026-04-16 10:57 | 52.05184 | 8.89428 | 18205 ft | 222 kts | 98° |
| 2026-04-16 10:57 | 52.04994 | 8.91918 | 18205 ft | 222 kts | 98° |
| 2026-04-16 10:57 | 52.04807 | 8.94373 | 18206 ft | 222 kts | 98° |
| 2026-04-16 10:58 | 52.04616 | 8.96857 | 18206 ft | 222 kts | 98° |
| 2026-04-16 10:58 | 52.04425 | 8.99342 | 18206 ft | 222 kts | 98° |
| 2026-04-16 10:58 | 52.04233 | 9.01831 | 18205 ft | 221 kts | 98° |
| 2026-04-16 10:58 | 52.04041 | 9.04309 | 18205 ft | 221 kts | 98° |
| 2026-04-16 10:59 | 52.03849 | 9.06787 | 18206 ft | 221 kts | 98° |
| 2026-04-16 10:59 | 52.03657 | 9.09269 | 18206 ft | 221 kts | 98° |
| 2026-04-16 10:59 | 52.03464 | 9.11751 | 18204 ft | 221 kts | 98° |
| 2026-04-16 10:59 | 52.03270 | 9.14232 | 18204 ft | 221 kts | 98° |
| 2026-04-16 11:00 | 52.03075 | 9.16709 | 18203 ft | 221 kts | 98° |
| 2026-04-16 11:00 | 52.02880 | 9.19185 | 18205 ft | 221 kts | 98° |
| 2026-04-16 11:00 | 52.02684 | 9.21662 | 18204 ft | 221 kts | 98° |
| 2026-04-16 11:00 | 52.02489 | 9.24135 | 18199 ft | 221 kts | 98° |
| 2026-04-16 11:01 | 52.02293 | 9.26612 | 18198 ft | 221 kts | 98° |
| 2026-04-16 11:01 | 52.02096 | 9.29090 | 18198 ft | 222 kts | 98° |
| 2026-04-16 11:01 | 52.01901 | 9.31545 | 18199 ft | 222 kts | 98° |
| 2026-04-16 11:01 | 52.01702 | 9.34032 | 18198 ft | 223 kts | 98° |
| 2026-04-16 11:02 | 52.01502 | 9.36529 | 18199 ft | 223 kts | 98° |
| 2026-04-16 11:02 | 52.01301 | 9.39025 | 18196 ft | 223 kts | 98° |
| 2026-04-16 11:02 | 52.01101 | 9.41514 | 18197 ft | 222 kts | 98° |
| 2026-04-16 11:02 | 52.00900 | 9.44005 | 18193 ft | 222 kts | 98° |
| 2026-04-16 11:03 | 52.00699 | 9.46485 | 18195 ft | 222 kts | 98° |
| 2026-04-16 11:03 | 52.00497 | 9.48969 | 18192 ft | 222 kts | 98° |
| 2026-04-16 11:03 | 52.00095 | 9.53891 | 18193 ft | 221 kts | 98° |
| 2026-04-16 11:04 | 51.99893 | 9.56367 | 18194 ft | 221 kts | 98° |
| 2026-04-16 11:04 | 51.99690 | 9.58846 | 18195 ft | 221 kts | 98° |
| 2026-04-16 11:04 | 51.99487 | 9.61321 | 18195 ft | 222 kts | 98° |
| 2026-04-16 11:04 | 51.99283 | 9.63799 | 18193 ft | 221 kts | 98° |
| 2026-04-16 11:05 | 51.99077 | 9.66267 | 18193 ft | 221 kts | 98° |
| 2026-04-16 11:05 | 51.98872 | 9.68735 | 18193 ft | 220 kts | 98° |
| 2026-04-16 11:05 | 51.98668 | 9.71196 | 18193 ft | 220 kts | 98° |
| 2026-04-16 11:05 | 51.98463 | 9.73658 | 18194 ft | 220 kts | 98° |
| 2026-04-16 11:06 | 51.98256 | 9.76130 | 18197 ft | 221 kts | 98° |
| 2026-04-16 11:06 | 51.98052 | 9.78564 | 18196 ft | 221 kts | 99° |
| 2026-04-16 11:06 | 51.97845 | 9.81031 | 18202 ft | 221 kts | 98° |
| 2026-04-16 11:06 | 51.97639 | 9.83494 | 18189 ft | 220 kts | 99° |
| 2026-04-16 11:07 | 51.97431 | 9.85955 | 18193 ft | 220 kts | 99° |
| 2026-04-16 11:07 | 51.97222 | 9.88412 | 18193 ft | 220 kts | 99° |
| 2026-04-16 11:07 | 51.97012 | 9.90867 | 18194 ft | 220 kts | 99° |
| 2026-04-16 11:07 | 51.96803 | 9.93334 | 18193 ft | 220 kts | 99° |
| 2026-04-16 11:08 | 51.96593 | 9.95792 | 18192 ft | 220 kts | 99° |
| 2026-04-16 11:08 | 51.96384 | 9.98240 | 18193 ft | 220 kts | 99° |
| 2026-04-16 11:08 | 51.96176 | 10.00667 | 18194 ft | 220 kts | 99° |
| 2026-04-16 11:08 | 51.95965 | 10.03121 | 18191 ft | 220 kts | 99° |
| 2026-04-16 11:09 | 51.95753 | 10.05582 | 18193 ft | 220 kts | 99° |
| 2026-04-16 11:09 | 51.95540 | 10.08043 | 18192 ft | 220 kts | 99° |
| 2026-04-16 11:09 | 51.95329 | 10.10496 | 18192 ft | 220 kts | 99° |
| 2026-04-16 11:09 | 51.95116 | 10.12954 | 18192 ft | 220 kts | 99° |
| 2026-04-16 11:10 | 51.94901 | 10.15413 | 18193 ft | 220 kts | 99° |
| 2026-04-16 11:10 | 51.94687 | 10.17872 | 18193 ft | 221 kts | 99° |
| 2026-04-16 11:10 | 51.94474 | 10.20303 | 18192 ft | 221 kts | 99° |
| 2026-04-16 11:10 | 51.94258 | 10.22763 | 18192 ft | 221 kts | 99° |
| 2026-04-16 11:11 | 51.94042 | 10.25224 | 18193 ft | 221 kts | 99° |
| 2026-04-16 11:11 | 51.93824 | 10.27687 | 18194 ft | 221 kts | 99° |
| 2026-04-16 11:11 | 51.93607 | 10.30150 | 18183 ft | 221 kts | 99° |
| 2026-04-16 11:11 | 51.93390 | 10.32603 | 18193 ft | 219 kts | 99° |
| 2026-04-16 11:12 | 51.93173 | 10.35045 | 18193 ft | 219 kts | 99° |
| 2026-04-16 11:12 | 51.92956 | 10.37484 | 18194 ft | 219 kts | 99° |
| 2026-04-16 11:12 | 51.92738 | 10.39926 | 18192 ft | 219 kts | 99° |
| 2026-04-16 11:12 | 51.92518 | 10.42372 | 18192 ft | 219 kts | 99° |
| 2026-04-16 11:13 | 51.92300 | 10.44811 | 18192 ft | 219 kts | 99° |
| 2026-04-16 11:13 | 51.92080 | 10.47254 | 18192 ft | 219 kts | 99° |
| 2026-04-16 11:13 | 51.91861 | 10.49691 | 18192 ft | 219 kts | 99° |
| 2026-04-16 11:13 | 51.91640 | 10.52139 | 18192 ft | 219 kts | 99° |
| 2026-04-16 11:14 | 51.91419 | 10.54579 | 18192 ft | 219 kts | 100° |
| 2026-04-16 11:14 | 51.91198 | 10.57023 | 18192 ft | 219 kts | 99° |
| 2026-04-16 11:14 | 51.90976 | 10.59464 | 18186 ft | 219 kts | 100° |
| 2026-04-16 11:14 | 51.90753 | 10.61907 | 18186 ft | 219 kts | 100° |
| 2026-04-16 11:15 | 51.90533 | 10.64314 | 18189 ft | 219 kts | 100° |
| 2026-04-16 11:15 | 51.90309 | 10.66755 | 18189 ft | 219 kts | 100° |
| 2026-04-16 11:15 | 51.90086 | 10.69193 | 18189 ft | 219 kts | 100° |
| 2026-04-16 11:15 | 51.89861 | 10.71632 | 18189 ft | 219 kts | 100° |
| 2026-04-16 11:16 | 51.89636 | 10.74069 | 18189 ft | 219 kts | 100° |
| 2026-04-16 11:16 | 51.89411 | 10.76507 | 18188 ft | 219 kts | 100° |
| 2026-04-16 11:16 | 51.89185 | 10.78940 | 18184 ft | 219 kts | 99° |
| 2026-04-16 11:16 | 51.88959 | 10.81379 | 18184 ft | 218 kts | 99° |
| 2026-04-16 11:17 | 51.88733 | 10.83813 | 18184 ft | 218 kts | 99° |
| 2026-04-16 11:17 | 51.88506 | 10.86246 | 18184 ft | 218 kts | 99° |
| 2026-04-16 11:17 | 51.88281 | 10.88645 | 18183 ft | 218 kts | 99° |
| 2026-04-16 11:17 | 51.88053 | 10.91074 | 18182 ft | 218 kts | 99° |
| 2026-04-16 11:18 | 51.87826 | 10.93498 | 18183 ft | 218 kts | 99° |
| 2026-04-16 11:18 | 51.87598 | 10.95922 | 18184 ft | 218 kts | 99° |
| 2026-04-16 11:18 | 51.87369 | 10.98347 | 18183 ft | 218 kts | 99° |
| 2026-04-16 11:18 | 51.87217 | 10.99953 | 18183 ft | 218 kts | 100° |
| 2026-04-16 11:19 | 51.86971 | 11.02376 | 18178 ft | 217 kts | 105° |
| 2026-04-16 11:19 | 51.86103 | 11.05241 | 18180 ft | 212 kts | 134° |
| 2026-04-16 11:19 | 51.85411 | 11.06331 | 18186 ft | 208 kts | 148° |
| 2026-04-16 11:19 | 51.84183 | 11.07519 | 18192 ft | 205 kts | 158° |
| 2026-04-16 11:20 | 51.82926 | 11.08596 | 18195 ft | 205 kts | 158° |
| 2026-04-16 11:20 | 51.81665 | 11.09665 | 18196 ft | 205 kts | 158° |
| 2026-04-16 11:20 | 51.80403 | 11.10738 | 18196 ft | 205 kts | 158° |
| 2026-04-16 11:20 | 51.79141 | 11.11816 | 18195 ft | 205 kts | 158° |
| 2026-04-16 11:21 | 51.77877 | 11.12897 | 18194 ft | 205 kts | 158° |
| 2026-04-16 11:21 | 51.76619 | 11.13972 | 18195 ft | 205 kts | 158° |
| 2026-04-16 11:21 | 51.75357 | 11.15049 | 18184 ft | 205 kts | 158° |
| 2026-04-16 11:21 | 51.74095 | 11.16123 | 18184 ft | 205 kts | 158° |
| 2026-04-16 11:22 | 51.72834 | 11.17198 | 18184 ft | 205 kts | 158° |
| 2026-04-16 11:22 | 51.71573 | 11.18272 | 18185 ft | 205 kts | 158° |
| 2026-04-16 11:22 | 51.70330 | 11.19329 | 18182 ft | 205 kts | 158° |
| 2026-04-16 11:22 | 51.69209 | 11.20802 | 18188 ft | 214 kts | 129° |
| 2026-04-16 11:23 | 51.68602 | 11.23006 | 18197 ft | 217 kts | 108° |
| 2026-04-16 11:23 | 51.68218 | 11.25361 | 18197 ft | 217 kts | 105° |
| 2026-04-16 11:23 | 51.67824 | 11.27719 | 18194 ft | 218 kts | 107° |
| 2026-04-16 11:23 | 51.67388 | 11.30058 | 18193 ft | 218 kts | 109° |
| 2026-04-16 11:24 | 51.66939 | 11.32397 | 18194 ft | 218 kts | 109° |
| 2026-04-16 11:24 | 51.66494 | 11.34729 | 18196 ft | 218 kts | 108° |
| 2026-04-16 11:24 | 51.66050 | 11.37069 | 18195 ft | 218 kts | 109° |
| 2026-04-16 11:24 | 51.65607 | 11.39406 | 18197 ft | 218 kts | 109° |
| 2026-04-16 11:25 | 51.65167 | 11.41718 | 18195 ft | 218 kts | 109° |
| 2026-04-16 11:25 | 51.64722 | 11.44056 | 18195 ft | 218 kts | 108° |
| 2026-04-16 11:25 | 51.64277 | 11.46394 | 18195 ft | 218 kts | 108° |
| 2026-04-16 11:25 | 51.63831 | 11.48730 | 18196 ft | 218 kts | 109° |
| 2026-04-16 11:26 | 51.63385 | 11.51067 | 18196 ft | 218 kts | 109° |
| 2026-04-16 11:26 | 51.62937 | 11.53403 | 18197 ft | 218 kts | 109° |
| 2026-04-16 11:26 | 51.62489 | 11.55744 | 18196 ft | 218 kts | 109° |
| 2026-04-16 11:26 | 51.62041 | 11.58080 | 18197 ft | 219 kts | 109° |
| 2026-04-16 11:27 | 51.61592 | 11.60417 | 18196 ft | 218 kts | 109° |
| 2026-04-16 11:27 | 51.61148 | 11.62727 | 18201 ft | 218 kts | 109° |
| 2026-04-16 11:27 | 51.60698 | 11.65061 | 18198 ft | 218 kts | 109° |
| 2026-04-16 11:27 | 51.60248 | 11.67392 | 18200 ft | 218 kts | 108° |
| 2026-04-16 11:28 | 51.59796 | 11.69738 | 18198 ft | 218 kts | 108° |
| 2026-04-16 11:28 | 51.59346 | 11.72069 | 18201 ft | 218 kts | 108° |
| 2026-04-16 11:28 | 51.58895 | 11.74402 | 18200 ft | 219 kts | 108° |
| 2026-04-16 11:28 | 51.58442 | 11.76738 | 18201 ft | 219 kts | 108° |
| 2026-04-16 11:29 | 51.57995 | 11.79041 | 18201 ft | 219 kts | 108° |
| 2026-04-16 11:29 | 51.57542 | 11.81375 | 18202 ft | 219 kts | 108° |
| 2026-04-16 11:29 | 51.57088 | 11.83712 | 18202 ft | 219 kts | 108° |
| 2026-04-16 11:29 | 51.56633 | 11.86051 | 18201 ft | 219 kts | 108° |
| 2026-04-16 11:30 | 51.56177 | 11.88389 | 18202 ft | 219 kts | 108° |
| 2026-04-16 11:30 | 51.55721 | 11.90727 | 18201 ft | 219 kts | 108° |
| 2026-04-16 11:30 | 51.55263 | 11.93066 | 18202 ft | 219 kts | 108° |
| 2026-04-16 11:30 | 51.54806 | 11.95404 | 18201 ft | 219 kts | 108° |
| 2026-04-16 11:31 | 51.54349 | 11.97742 | 18197 ft | 219 kts | 108° |
| 2026-04-16 11:31 | 51.53890 | 12.00078 | 18197 ft | 219 kts | 108° |
| 2026-04-16 11:31 | 51.53431 | 12.02415 | 18197 ft | 219 kts | 108° |
| 2026-04-16 11:31 | 51.52972 | 12.04750 | 18197 ft | 219 kts | 108° |
| 2026-04-16 11:32 | 51.52513 | 12.07087 | 18197 ft | 219 kts | 108° |
| 2026-04-16 11:32 | 51.52058 | 12.09397 | 18197 ft | 219 kts | 108° |
| 2026-04-16 11:32 | 51.51597 | 12.11731 | 18194 ft | 220 kts | 108° |
| 2026-04-16 11:32 | 51.51136 | 12.14067 | 18195 ft | 219 kts | 108° |
| 2026-04-16 11:33 | 51.50674 | 12.16404 | 18195 ft | 219 kts | 108° |
| 2026-04-16 11:33 | 51.50213 | 12.18733 | 18196 ft | 219 kts | 108° |
| 2026-04-16 11:33 | 51.49750 | 12.21070 | 18191 ft | 220 kts | 108° |
| 2026-04-16 11:33 | 51.49286 | 12.23407 | 18190 ft | 220 kts | 108° |
| 2026-04-16 11:34 | 51.48822 | 12.25743 | 18189 ft | 220 kts | 108° |
| 2026-04-16 11:34 | 51.48354 | 12.28093 | 18189 ft | 220 kts | 108° |
| 2026-04-16 11:34 | 51.47889 | 12.30426 | 18189 ft | 220 kts | 108° |
| 2026-04-16 11:34 | 51.47429 | 12.32736 | 18190 ft | 219 kts | 108° |
| 2026-04-16 11:35 | 51.46963 | 12.35069 | 18190 ft | 219 kts | 108° |
| 2026-04-16 11:35 | 51.46496 | 12.37403 | 18191 ft | 219 kts | 108° |
| 2026-04-16 11:35 | 51.46028 | 12.39737 | 18191 ft | 219 kts | 108° |
| 2026-04-16 11:35 | 51.45562 | 12.42065 | 18191 ft | 219 kts | 108° |
| 2026-04-16 11:36 | 51.45095 | 12.44397 | 18192 ft | 220 kts | 108° |
| 2026-04-16 11:36 | 51.44626 | 12.46728 | 18191 ft | 220 kts | 108° |
| 2026-04-16 11:36 | 51.44163 | 12.49032 | 18190 ft | 220 kts | 108° |
| 2026-04-16 11:36 | 51.43694 | 12.51362 | 18191 ft | 220 kts | 108° |
| 2026-04-16 11:37 | 51.43225 | 12.53689 | 18191 ft | 219 kts | 108° |
| 2026-04-16 11:37 | 51.42581 | 12.55896 | 18191 ft | 218 kts | 122° |
| 2026-04-16 11:37 | 51.41787 | 12.57971 | 18191 ft | 218 kts | 123° |
| 2026-04-16 11:37 | 51.40980 | 12.60032 | 18192 ft | 219 kts | 123° |
| 2026-04-16 11:38 | 51.40173 | 12.62099 | 18193 ft | 219 kts | 123° |
| 2026-04-16 11:38 | 51.39369 | 12.64169 | 18194 ft | 219 kts | 123° |
| 2026-04-16 11:38 | 51.38563 | 12.66245 | 18193 ft | 219 kts | 123° |
| 2026-04-16 11:38 | 51.37759 | 12.68314 | 18194 ft | 219 kts | 123° |
| 2026-04-16 11:39 | 51.36955 | 12.70383 | 18195 ft | 219 kts | 123° |
| 2026-04-16 11:39 | 51.36158 | 12.72426 | 18192 ft | 219 kts | 123° |
| 2026-04-16 11:39 | 51.35350 | 12.74500 | 18193 ft | 219 kts | 123° |
| 2026-04-16 11:39 | 51.34543 | 12.76569 | 18178 ft | 219 kts | 123° |
| 2026-04-16 11:40 | 51.33735 | 12.78640 | 18181 ft | 219 kts | 124° |
| 2026-04-16 11:40 | 51.32928 | 12.80707 | 18182 ft | 219 kts | 124° |
| 2026-04-16 11:40 | 51.32120 | 12.82773 | 18182 ft | 219 kts | 124° |
| 2026-04-16 11:40 | 51.31325 | 12.84805 | 18182 ft | 219 kts | 124° |
| 2026-04-16 11:41 | 51.30518 | 12.86865 | 18184 ft | 219 kts | 124° |
| 2026-04-16 11:41 | 51.29708 | 12.88930 | 18180 ft | 219 kts | 124° |
| 2026-04-16 11:41 | 51.28893 | 12.91008 | 18062 ft | 224 kts | 124° |
| 2026-04-16 11:41 | 51.28039 | 12.93188 | 17794 ft | 233 kts | 123° |
| 2026-04-16 11:42 | 51.27178 | 12.95386 | 17490 ft | 240 kts | 123° |
| 2026-04-16 11:42 | 51.26283 | 12.97671 | 17167 ft | 244 kts | 123° |
| 2026-04-16 11:42 | 51.25377 | 12.99983 | 16835 ft | 247 kts | 123° |
| 2026-04-16 11:42 | 51.24461 | 13.02319 | 16508 ft | 248 kts | 123° |
| 2026-04-16 11:43 | 51.23550 | 13.04639 | 16180 ft | 246 kts | 123° |
| 2026-04-16 11:43 | 51.22642 | 13.06949 | 15860 ft | 245 kts | 123° |
| 2026-04-16 11:43 | 51.21738 | 13.09243 | 15543 ft | 244 kts | 123° |
| 2026-04-16 11:43 | 51.20847 | 13.11505 | 15222 ft | 243 kts | 123° |
| 2026-04-16 11:44 | 51.19952 | 13.13781 | 14904 ft | 242 kts | 123° |
| 2026-04-16 11:44 | 51.19056 | 13.16052 | 14598 ft | 241 kts | 123° |
| 2026-04-16 11:44 | 51.18163 | 13.18311 | 14293 ft | 240 kts | 123° |
| 2026-04-16 11:44 | 51.17275 | 13.20556 | 13991 ft | 239 kts | 122° |
| 2026-04-16 11:45 | 51.16386 | 13.22797 | 13655 ft | 237 kts | 123° |
| 2026-04-16 11:45 | 51.15513 | 13.24989 | 13321 ft | 232 kts | 122° |
| 2026-04-16 11:45 | 51.14663 | 13.27124 | 12998 ft | 230 kts | 122° |
| 2026-04-16 11:45 | 51.13800 | 13.29291 | 12656 ft | 228 kts | 122° |
| 2026-04-16 11:46 | 51.12962 | 13.31395 | 12299 ft | 228 kts | 122° |
| 2026-04-16 11:46 | 51.12114 | 13.33519 | 11944 ft | 227 kts | 122° |
| 2026-04-16 11:46 | 51.11267 | 13.35638 | 11591 ft | 226 kts | 121° |
| 2026-04-16 11:46 | 51.10369 | 13.37682 | 11229 ft | 222 kts | 126° |
| 2026-04-16 11:47 | 51.09435 | 13.39646 | 10674 ft | 223 kts | 128° |
| 2026-04-16 11:47 | 51.08307 | 13.41300 | 10165 ft | 220 kts | 148° |
| 2026-04-16 11:47 | 51.06921 | 13.42257 | 9613 ft | 215 kts | 168° |
| 2026-04-16 11:47 | 51.05454 | 13.42444 | 9066 ft | 209 kts | 188° |
| 2026-04-16 11:48 | 51.04072 | 13.41908 | 8501 ft | 201 kts | 207° |
| 2026-04-16 11:48 | 51.02915 | 13.40790 | 7953 ft | 193 kts | 225° |
| 2026-04-16 11:48 | 51.01898 | 13.39419 | 7404 ft | 190 kts | 225° |
| 2026-04-16 11:48 | 51.00904 | 13.38062 | 6853 ft | 186 kts | 226° |
| 2026-04-16 11:49 | 50.99931 | 13.36737 | 6279 ft | 183 kts | 226° |
| 2026-04-16 11:49 | 50.98927 | 13.35493 | 5638 ft | 186 kts | 216° |
| 2026-04-16 11:49 | 50.97744 | 13.34755 | 5403 ft | 181 kts | 197° |
| 2026-04-16 11:49 | 50.96484 | 13.34628 | 5165 ft | 183 kts | 179° |
| 2026-04-16 11:50 | 50.95257 | 13.35137 | 5031 ft | 183 kts | 159° |
| 2026-04-16 11:50 | 50.94188 | 13.36224 | 4889 ft | 183 kts | 140° |
| 2026-04-16 11:50 | 50.93328 | 13.37713 | 4744 ft | 183 kts | 132° |
| 2026-04-16 11:50 | 50.92493 | 13.39250 | 4604 ft | 186 kts | 132° |
| 2026-04-16 11:51 | 50.91658 | 13.40824 | 4448 ft | 187 kts | 127° |
| 2026-04-16 11:51 | 50.91122 | 13.42649 | 4300 ft | 184 kts | 101° |
| 2026-04-16 11:51 | 50.91075 | 13.44635 | 4195 ft | 178 kts | 77° |
| 2026-04-16 11:51 | 50.91485 | 13.46428 | 4194 ft | 171 kts | 54° |
| 2026-04-16 11:52 | 50.92261 | 13.47816 | 4197 ft | 168 kts | 34° |
| 2026-04-16 11:52 | 50.93157 | 13.49013 | 4190 ft | 168 kts | 35° |
| 2026-04-16 11:52 | 50.94046 | 13.50222 | 4194 ft | 168 kts | 36° |
| 2026-04-16 11:52 | 50.94935 | 13.51441 | 4192 ft | 169 kts | 35° |
| 2026-04-16 11:53 | 50.95828 | 13.52660 | 4197 ft | 169 kts | 34° |
| 2026-04-16 11:53 | 50.96723 | 13.53885 | 4197 ft | 170 kts | 36° |
| 2026-04-16 11:53 | 50.97621 | 13.55110 | 4191 ft | 170 kts | 35° |
| 2026-04-16 11:53 | 50.98511 | 13.56329 | 4194 ft | 169 kts | 36° |
| 2026-04-16 11:54 | 50.99402 | 13.57551 | 4118 ft | 171 kts | 36° |
| 2026-04-16 11:54 | 51.00314 | 13.58794 | 3911 ft | 177 kts | 35° |
| 2026-04-16 11:54 | 51.01250 | 13.60080 | 3677 ft | 179 kts | 35° |
| 2026-04-16 11:54 | 51.02191 | 13.61368 | 3444 ft | 178 kts | 37° |
| 2026-04-16 11:55 | 51.03133 | 13.62661 | 3195 ft | 180 kts | 36° |
| 2026-04-16 11:55 | 51.04077 | 13.63954 | 2963 ft | 178 kts | 36° |
| 2026-04-16 11:55 | 51.05020 | 13.65246 | 2718 ft | 179 kts | 37° |
| 2026-04-16 11:55 | 51.05960 | 13.66537 | 2475 ft | 178 kts | 37° |
| 2026-04-16 11:56 | 51.06887 | 13.67810 | 2234 ft | 172 kts | 36° |
| 2026-04-16 11:56 | 51.07751 | 13.69000 | 2008 ft | 152 kts | 35° |
| 2026-04-16 11:56 | 51.08517 | 13.70040 | 1819 ft | 143 kts | 36° |
| 2026-04-16 11:56 | 51.09226 | 13.71020 | 1636 ft | 128 kts | 35° |
| 2026-04-16 11:57 | 51.09864 | 13.71905 | 1474 ft | 111 kts | 33° |
| 2026-04-16 11:57 | 51.10409 | 13.72648 | 1321 ft | 97 kts | 33° |
| 2026-04-16 11:57 | 51.10895 | 13.73318 | 1187 ft | 90 kts | 31° |
| 2026-04-16 11:57 | 51.11387 | 13.73976 | 1080 ft | 93 kts | 35° |
| 2026-04-16 11:58 | 51.11869 | 13.74639 | 995 ft | 92 kts | 33° |
| 2026-04-16 11:58 | 51.12350 | 13.75310 | 869 ft | 89 kts | 34° |
| 2026-04-16 11:58 | 51.12804 | 13.75930 | 748 ft | 76 kts | 38° |
| 2026-04-16 11:58 | 51.13138 | 13.76387 | 744 ft | 56 kts | 41° |
| 2026-04-16 11:59 | 51.13361 | 13.76714 | 732 ft | 20 kts | 83° |
| 2026-04-16 11:59 | 51.13288 | 13.76874 | 730 ft | 17 kts | 131° |
| 2026-04-16 11:59 | 51.13247 | 13.76968 | 730 ft | 9 kts | 149° |
| 2026-04-16 11:59 | 51.13171 | 13.76917 | 735 ft | 16 kts | 223° |
| 2026-04-16 12:00 | 51.13072 | 13.76777 | 739 ft | 22 kts | 220° |
| 2026-04-16 12:00 | 51.12936 | 13.76591 | 743 ft | 28 kts | 221° |
| 2026-04-16 12:00 | 51.12798 | 13.76402 | 745 ft | 24 kts | 222° |
| 2026-04-16 12:00 | 51.12683 | 13.76244 | 747 ft | 20 kts | 222° |
| 2026-04-16 12:01 | 51.12580 | 13.76101 | 750 ft | 19 kts | 221° |
| 2026-04-16 12:01 | 51.12474 | 13.75955 | 754 ft | 20 kts | 221° |
| 2026-04-16 12:01 | 51.12398 | 13.75919 | 757 ft | 15 kts | 85° |
| 2026-04-16 12:02 | 51.12347 | 13.75976 | 757 ft | 0 kts | 222° |